sensor_id;sensor_type;location;lat;lon;timestamp;pressure;altitude;pressure_sealevel;temperature;humidity
10064;BME280;5071;52.360;13.134;2023-02-17T00:02:01;101465.38;;;7.70;82.78
10064;BME280;5071;52.360;13.134;2023-02-17T00:07:07;101457.44;;;7.71;82.41
10064;BME280;5071;52.360;13.134;2023-02-17T00:12:13;101450.50;;;7.79;82.28
10064;BME280;5071;52.360;13.134;2023-02-17T00:17:16;101444.28;;;7.76;82.54
10064;BME280;5071;52.360;13.134;2023-02-17T00:22:20;101441.66;;;7.77;83.10
10064;BME280;5071;52.360;13.134;2023-02-17T00:27:22;101435.41;;;7.71;83.63
10064;BME280;5071;52.360;13.134;2023-02-17T00:32:25;101432.69;;;7.63;85.39
10064;BME280;5071;52.360;13.134;2023-02-17T00:37:28;101422.88;;;7.50;88.07
10064;BME280;5071;52.360;13.134;2023-02-17T00:42:30;101427.16;;;7.40;89.21
10064;BME280;5071;52.360;13.134;2023-02-17T00:47:33;101430.56;;;7.31;90.51
10064;BME280;5071;52.360;13.134;2023-02-17T00:52:36;101426.16;;;7.29;90.74
10064;BME280;5071;52.360;13.134;2023-02-17T00:57:38;101404.16;;;7.28;91.28
10064;BME280;5071;52.360;13.134;2023-02-17T01:02:41;101402.28;;;7.19;91.77
10064;BME280;5071;52.360;13.134;2023-02-17T01:07:44;101392.56;;;7.18;92.34
10064;BME280;5071;52.360;13.134;2023-02-17T01:12:46;101381.94;;;7.12;92.77
10064;BME280;5071;52.360;13.134;2023-02-17T01:17:52;101380.16;;;7.10;92.86
10064;BME280;5071;52.360;13.134;2023-02-17T01:23:11;101379.28;;;7.11;92.84
10064;BME280;5071;52.360;13.134;2023-02-17T01:28:22;101363.47;;;7.12;93.22
10064;BME280;5071;52.360;13.134;2023-02-17T01:33:24;101360.88;;;7.15;93.01
10064;BME280;5071;52.360;13.134;2023-02-17T01:38:33;101357.38;;;7.18;92.94
10064;BME280;5071;52.360;13.134;2023-02-17T01:43:36;101346.84;;;7.21;92.60
10064;BME280;5071;52.360;13.134;2023-02-17T01:48:41;101347.72;;;7.20;92.60
10064;BME280;5071;52.360;13.134;2023-02-17T01:54:01;101332.75;;;7.19;92.81
10064;BME280;5071;52.360;13.134;2023-02-17T01:59:06;101328.34;;;7.19;92.87
10064;BME280;5071;52.360;13.134;2023-02-17T02:04:09;101324.84;;;7.22;93.27
10064;BME280;5071;52.360;13.134;2023-02-17T02:09:17;101316.03;;;7.20;93.19
10064;BME280;5071;52.360;13.134;2023-02-17T02:14:21;101304.63;;;7.23;93.43
10064;BME280;5071;52.360;13.134;2023-02-17T02:19:42;101287.88;;;7.22;93.47
10064;BME280;5071;52.360;13.134;2023-02-17T02:25:07;101279.97;;;7.22;93.90
10064;BME280;5071;52.360;13.134;2023-02-17T02:30:34;101273.78;;;7.20;94.09
10064;BME280;5071;52.360;13.134;2023-02-17T02:35:53;101263.22;;;7.20;95.11
10064;BME280;5071;52.360;13.134;2023-02-17T02:41:03;101259.66;;;7.13;95.68
10064;BME280;5071;52.360;13.134;2023-02-17T02:46:09;101250.81;;;7.10;96.19
10064;BME280;5071;52.360;13.134;2023-02-17T02:51:25;101249.91;;;7.09;96.55
10064;BME280;5071;52.360;13.134;2023-02-17T02:56:40;101241.09;;;7.09;96.93
10064;BME280;5071;52.360;13.134;2023-02-17T03:01:50;101228.78;;;7.06;97.08
10064;BME280;5071;52.360;13.134;2023-02-17T03:06:58;101218.25;;;7.08;97.47
10064;BME280;5071;52.360;13.134;2023-02-17T03:12:04;101219.13;;;7.08;97.67
10064;BME280;5071;52.360;13.134;2023-02-17T03:17:14;101209.41;;;7.07;98.75
10064;BME280;5071;52.360;13.134;2023-02-17T03:22:20;101197.03;;;7.01;99.77
10064;BME280;5071;52.360;13.134;2023-02-17T03:27:23;101196.16;;;6.99;100.00
10064;BME280;5071;52.360;13.134;2023-02-17T03:32:25;101196.16;;;6.99;100.00
10064;BME280;5071;52.360;13.134;2023-02-17T03:37:29;101214.63;;;6.99;100.00
10064;BME280;5071;52.360;13.134;2023-02-17T03:42:31;101198.78;;;6.99;100.00
10064;BME280;5071;52.360;13.134;2023-02-17T03:47:35;101197.84;;;6.93;100.00
10064;BME280;5071;52.360;13.134;2023-02-17T03:53:03;101199.66;;;6.97;100.00
10064;BME280;5071;52.360;13.134;2023-02-17T03:58:05;101196.94;;;6.92;100.00
10064;BME280;5071;52.360;13.134;2023-02-17T04:03:07;101199.59;;;6.91;100.00
10064;BME280;5071;52.360;13.134;2023-02-17T04:08:11;101181.09;;;6.89;100.00
10064;BME280;5071;52.360;13.134;2023-02-17T04:13:13;101183.75;;;6.89;100.00
10064;BME280;5071;52.360;13.134;2023-02-17T04:18:16;101167.91;;;6.88;100.00
10064;BME280;5071;52.360;13.134;2023-02-17T04:23:19;101170.50;;;6.86;100.00
10064;BME280;5071;52.360;13.134;2023-02-17T04:28:22;101164.38;;;6.87;100.00
10064;BME280;5071;52.360;13.134;2023-02-17T04:33:24;101164.34;;;6.86;100.00
10064;BME280;5071;52.360;13.134;2023-02-17T04:38:29;101148.50;;;6.84;100.00
10064;BME280;5071;52.360;13.134;2023-02-17T04:43:40;101147.59;;;6.80;100.00
10064;BME280;5071;52.360;13.134;2023-02-17T04:48:42;101143.19;;;6.81;100.00
10064;BME280;5071;52.360;13.134;2023-02-17T04:53:46;101148.47;;;6.81;100.00
10064;BME280;5071;52.360;13.134;2023-02-17T04:58:47;101136.16;;;6.80;100.00
10064;BME280;5071;52.360;13.134;2023-02-17T05:04:14;101128.28;;;6.85;100.00
10064;BME280;5071;52.360;13.134;2023-02-17T05:09:17;101125.69;;;6.88;100.00
10064;BME280;5071;52.360;13.134;2023-02-17T05:14:19;101122.16;;;6.90;100.00
10064;BME280;5071;52.360;13.134;2023-02-17T05:19:21;101118.69;;;6.91;100.00
10064;BME280;5071;52.360;13.134;2023-02-17T05:24:24;101111.59;;;6.87;100.00
10064;BME280;5071;52.360;13.134;2023-02-17T05:29:26;101111.69;;;6.96;100.00
10064;BME280;5071;52.360;13.134;2023-02-17T05:34:29;101103.78;;;6.99;100.00
10064;BME280;5071;52.360;13.134;2023-02-17T05:39:33;101097.63;;;7.04;100.00
10064;BME280;5071;52.360;13.134;2023-02-17T05:44:35;101096.81;;;7.09;100.00
10064;BME280;5071;52.360;13.134;2023-02-17T05:49:37;101099.47;;;7.12;100.00
10064;BME280;5071;52.360;13.134;2023-02-17T05:54:40;101086.34;;;7.20;100.00
10064;BME280;5071;52.360;13.134;2023-02-17T05:59:42;101092.56;;;7.28;100.00
10064;BME280;5071;52.360;13.134;2023-02-17T06:04:44;101087.31;;;7.37;100.00
10064;BME280;5071;52.360;13.134;2023-02-17T06:09:47;101090.03;;;7.48;100.00
10064;BME280;5071;52.360;13.134;2023-02-17T06:14:50;101090.94;;;7.52;100.00
10064;BME280;5071;52.360;13.134;2023-02-17T06:19:52;101083.94;;;7.57;100.00
10064;BME280;5071;52.360;13.134;2023-02-17T06:24:55;101066.38;;;7.68;100.00
10064;BME280;5071;52.360;13.134;2023-02-17T06:29:58;101064.63;;;7.75;100.00
10064;BME280;5071;52.360;13.134;2023-02-17T06:35:00;101067.31;;;7.81;100.00
10064;BME280;5071;52.360;13.134;2023-02-17T06:40:05;101054.13;;;7.89;100.00
10064;BME280;5071;52.360;13.134;2023-02-17T06:45:08;101055.03;;;7.97;99.90
10064;BME280;5071;52.360;13.134;2023-02-17T06:50:10;101052.41;;;8.03;99.13
10064;BME280;5071;52.360;13.134;2023-02-17T06:55:14;101047.16;;;8.09;98.44
10064;BME280;5071;52.360;13.134;2023-02-17T07:00:17;101045.38;;;8.14;98.49
10064;BME280;5071;52.360;13.134;2023-02-17T07:05:19;101047.16;;;8.22;97.81
10064;BME280;5071;52.360;13.134;2023-02-17T07:10:22;101053.34;;;8.28;97.69
10064;BME280;5071;52.360;13.134;2023-02-17T07:15:25;101050.72;;;8.36;97.02
10064;BME280;5071;52.360;13.134;2023-02-17T07:20:27;101040.19;;;8.42;96.57
10064;BME280;5071;52.360;13.134;2023-02-17T07:25:31;101049.88;;;8.48;96.68
10064;BME280;5071;52.360;13.134;2023-02-17T07:30:36;101048.13;;;8.54;96.02
10064;BME280;5071;52.360;13.134;2023-02-17T07:35:39;101042.84;;;8.64;95.69
10064;BME280;5071;52.360;13.134;2023-02-17T07:40:43;101033.13;;;8.69;95.54
10064;BME280;5071;52.360;13.134;2023-02-17T07:45:45;101018.16;;;8.74;95.01
10064;BME280;5071;52.360;13.134;2023-02-17T07:50:48;101012.84;;;8.85;94.97
10064;BME280;5071;52.360;13.134;2023-02-17T07:55:51;101006.69;;;8.93;94.03
10064;BME280;5071;52.360;13.134;2023-02-17T08:00:53;101011.94;;;8.97;94.08
10064;BME280;5071;52.360;13.134;2023-02-17T08:05:56;101007.53;;;9.00;94.09
10064;BME280;5071;52.360;13.134;2023-02-17T08:11:11;101012.84;;;9.05;93.83
10064;BME280;5071;52.360;13.134;2023-02-17T08:16:13;101010.16;;;9.11;93.42
10064;BME280;5071;52.360;13.134;2023-02-17T08:21:15;101012.81;;;9.09;94.17
10064;BME280;5071;52.360;13.134;2023-02-17T08:26:19;101014.56;;;9.13;94.69
10064;BME280;5071;52.360;13.134;2023-02-17T08:31:24;101008.41;;;9.13;95.42
10064;BME280;5071;52.360;13.134;2023-02-17T08:36:27;100993.41;;;9.10;95.70
10064;BME280;5071;52.360;13.134;2023-02-17T08:41:33;100990.72;;;9.12;96.59
10064;BME280;5071;52.360;13.134;2023-02-17T08:46:36;100997.78;;;9.10;97.58
10064;BME280;5071;52.360;13.134;2023-02-17T08:51:39;100998.69;;;9.07;98.15
10064;BME280;5071;52.360;13.134;2023-02-17T08:56:42;100995.16;;;9.04;99.32
10064;BME280;5071;52.360;13.134;2023-02-17T09:01:44;100981.94;;;9.04;100.00
10064;BME280;5071;52.360;13.134;2023-02-17T09:06:49;100958.09;;;9.01;100.00
10064;BME280;5071;52.360;13.134;2023-02-17T09:11:54;100951.94;;;8.99;100.00
10064;BME280;5071;52.360;13.134;2023-02-17T09:16:56;100951.06;;;8.95;100.00
10064;BME280;5071;52.360;13.134;2023-02-17T09:21:59;100928.13;;;8.94;100.00
10064;BME280;5071;52.360;13.134;2023-02-17T09:27:02;100917.53;;;8.92;100.00
10064;BME280;5071;52.360;13.134;2023-02-17T09:32:05;100895.50;;;8.93;100.00
10064;BME280;5071;52.360;13.134;2023-02-17T09:37:09;100902.53;;;8.94;100.00
10064;BME280;5071;52.360;13.134;2023-02-17T09:42:16;100890.19;;;8.93;100.00
10064;BME280;5071;52.360;13.134;2023-02-17T09:47:23;100885.75;;;9.00;100.00
10064;BME280;5071;52.360;13.134;2023-02-17T09:52:29;100870.72;;;9.01;100.00
10064;BME280;5071;52.360;13.134;2023-02-17T09:57:37;100861.03;;;9.00;100.00
10064;BME280;5071;52.360;13.134;2023-02-17T10:02:47;100857.50;;;9.07;100.00
10064;BME280;5071;52.360;13.134;2023-02-17T10:07:55;100833.63;;;9.08;100.00
10064;BME280;5071;52.360;13.134;2023-02-17T10:13:03;100839.78;;;9.17;100.00
10064;BME280;5071;52.360;13.134;2023-02-17T10:18:10;100829.16;;;9.21;100.00
10064;BME280;5071;52.360;13.134;2023-02-17T10:23:17;100828.28;;;9.22;100.00
10064;BME280;5071;52.360;13.134;2023-02-17T10:28:29;100813.19;;;9.33;100.00
10064;BME280;5071;52.360;13.134;2023-02-17T10:33:37;100799.84;;;9.47;100.00
10064;BME280;5071;52.360;13.134;2023-02-17T10:38:48;100800.72;;;9.52;100.00
10064;BME280;5071;52.360;13.134;2023-02-17T10:43:53;100798.00;;;9.60;100.00
10064;BME280;5071;52.360;13.134;2023-02-17T10:48:57;100774.06;;;9.68;100.00
10064;BME280;5071;52.360;13.134;2023-02-17T10:54:04;100772.19;;;9.84;100.00
10064;BME280;5071;52.360;13.134;2023-02-17T10:59:13;100766.81;;;9.93;100.00
10064;BME280;5071;52.360;13.134;2023-02-17T11:04:19;100745.53;;;10.01;99.92
10064;BME280;5071;52.360;13.134;2023-02-17T11:09:24;100716.16;;;10.18;97.73
10064;BME280;5071;52.360;13.134;2023-02-17T11:14:29;100708.03;;;10.35;96.62
10064;BME280;5071;52.360;13.134;2023-02-17T11:19:33;100703.50;;;10.44;95.63
10064;BME280;5071;52.360;13.134;2023-02-17T11:24:35;100688.34;;;10.54;94.31
10064;BME280;5071;52.360;13.134;2023-02-17T11:29:39;100685.53;;;10.65;93.92
10064;BME280;5071;52.360;13.134;2023-02-17T11:34:42;100659.72;;;10.76;93.29
10064;BME280;5071;52.360;13.134;2023-02-17T11:39:47;100656.88;;;10.88;91.81
10064;BME280;5071;52.360;13.134;2023-02-17T11:44:53;100654.91;;;11.00;90.76
10064;BME280;5071;52.360;13.134;2023-02-17T11:50:05;100640.63;;;11.10;90.60
10064;BME280;5071;52.360;13.134;2023-02-17T11:55:18;100613.97;;;11.15;89.14
10064;BME280;5071;52.360;13.134;2023-02-17T12:00:31;100597.00;;;11.23;88.63
10064;BME280;5071;52.360;13.134;2023-02-17T12:05:48;100581.03;;;11.25;88.20
10064;BME280;5071;52.360;13.134;2023-02-17T12:11:03;100587.97;;;11.34;87.59
10064;BME280;5071;52.360;13.134;2023-02-17T12:16:20;100590.56;;;11.37;87.39
10064;BME280;5071;52.360;13.134;2023-02-17T12:21:41;100588.44;;;11.54;87.08
10064;BME280;5071;52.360;13.134;2023-02-17T12:26:46;100569.63;;;11.66;86.07
10064;BME280;5071;52.360;13.134;2023-02-17T12:31:58;100568.28;;;11.89;85.26
10064;BME280;5071;52.360;13.134;2023-02-17T12:37:04;100556.38;;;12.09;84.93
10064;BME280;5071;52.360;13.134;2023-02-17T12:42:11;100550.84;;;12.18;84.64
10064;BME280;5071;52.360;13.134;2023-02-17T12:47:21;100511.50;;;12.32;83.51
10064;BME280;5071;52.360;13.134;2023-02-17T12:52:26;100505.00;;;12.44;82.83
10064;BME280;5071;52.360;13.134;2023-02-17T12:57:36;100518.06;;;12.55;82.80
10064;BME280;5071;52.360;13.134;2023-02-17T13:02:43;100511.03;;;12.52;82.92
10064;BME280;5071;52.360;13.134;2023-02-17T13:07:47;100511.69;;;12.62;82.76
10064;BME280;5071;52.360;13.134;2023-02-17T13:12:56;100511.69;;;12.62;83.29
10064;BME280;5071;52.360;13.134;2023-02-17T13:18:02;100510.63;;;12.69;82.91
10064;BME280;5071;52.360;13.134;2023-02-17T13:23:11;100511.22;;;12.80;82.01
10064;BME280;5071;52.360;13.134;2023-02-17T13:28:32;100511.22;;;12.80;82.59
10064;BME280;5071;52.360;13.134;2023-02-17T13:33:42;100504.94;;;12.83;82.44
10064;BME280;5071;52.360;13.134;2023-02-17T13:38:57;100488.84;;;12.88;81.72
10064;BME280;5071;52.360;13.134;2023-02-17T13:44:21;100493.19;;;12.92;82.44
10064;BME280;5071;52.360;13.134;2023-02-17T13:49:29;100486.13;;;12.89;82.38
10064;BME280;5071;52.360;13.134;2023-02-17T13:54:32;100488.59;;;12.97;81.52
10064;BME280;5071;52.360;13.134;2023-02-17T13:59:34;100488.59;;;12.97;81.39
10064;BME280;5071;52.360;13.134;2023-02-17T14:04:39;100489.25;;;13.07;80.55
10064;BME280;5071;52.360;13.134;2023-02-17T14:09:41;100494.81;;;12.97;81.75
10064;BME280;5071;52.360;13.134;2023-02-17T14:14:44;100509.06;;;12.95;81.41
10064;BME280;5071;52.360;13.134;2023-02-17T14:19:48;100504.41;;;13.05;80.61
10064;BME280;5071;52.360;13.134;2023-02-17T14:24:57;100505.47;;;12.97;80.92
10064;BME280;5071;52.360;13.134;2023-02-17T14:30:01;100519.41;;;13.07;80.10
10064;BME280;5071;52.360;13.134;2023-02-17T14:35:19;100516.03;;;13.00;80.58
10064;BME280;5071;52.360;13.134;2023-02-17T14:40:23;100532.72;;;13.09;80.44
10064;BME280;5071;52.360;13.134;2023-02-17T14:45:26;100535.28;;;13.12;80.55
10064;BME280;5071;52.360;13.134;2023-02-17T14:50:32;100524.69;;;13.10;80.89
10064;BME280;5071;52.360;13.134;2023-02-17T14:55:36;100547.16;;;12.98;82.30
10064;BME280;5071;52.360;13.134;2023-02-17T15:00:42;100539.94;;;12.68;86.03
10064;BME280;5071;52.360;13.134;2023-02-17T15:05:46;100553.41;;;12.22;90.93
10064;BME280;5071;52.360;13.134;2023-02-17T15:10:48;100557.53;;;11.95;94.82
10064;BME280;5071;52.360;13.134;2023-02-17T15:15:51;100553.63;;;11.70;97.80
10064;BME280;5071;52.360;13.134;2023-02-17T15:20:57;100543.25;;;11.54;100.00
10064;BME280;5071;52.360;13.134;2023-02-17T15:25:59;100531.91;;;11.46;100.00
10064;BME280;5071;52.360;13.134;2023-02-17T15:31:01;100547.72;;;11.52;100.00
10064;BME280;5071;52.360;13.134;2023-02-17T15:36:06;100536.38;;;11.45;100.00
10064;BME280;5071;52.360;13.134;2023-02-17T15:41:16;100532.03;;;11.40;100.00
10064;BME280;5071;52.360;13.134;2023-02-17T15:46:25;100527.53;;;11.43;100.00
10064;BME280;5071;52.360;13.134;2023-02-17T15:51:31;100520.47;;;11.42;100.00
10064;BME280;5071;52.360;13.134;2023-02-17T15:56:40;100514.34;;;11.39;100.00
10064;BME280;5071;52.360;13.134;2023-02-17T16:01:44;100520.53;;;11.39;100.00
10064;BME280;5071;52.360;13.134;2023-02-17T16:06:48;100509.09;;;11.36;100.00
10064;BME280;5071;52.360;13.134;2023-02-17T16:11:50;100509.19;;;11.29;100.00
10064;BME280;5071;52.360;13.134;2023-02-17T16:16:54;100518.94;;;11.29;100.00
10064;BME280;5071;52.360;13.134;2023-02-17T16:21:57;100526.91;;;11.31;100.00
10064;BME280;5071;52.360;13.134;2023-02-17T16:26:59;100521.59;;;11.31;100.00
10064;BME280;5071;52.360;13.134;2023-02-17T16:32:02;100545.41;;;11.35;99.02
10064;BME280;5071;52.360;13.134;2023-02-17T16:37:12;100558.66;;;11.37;97.94
10064;BME280;5071;52.360;13.134;2023-02-17T16:42:15;100549.81;;;11.36;97.50
10064;BME280;5071;52.360;13.134;2023-02-17T16:47:19;100549.69;;;11.42;95.91
10064;BME280;5071;52.360;13.134;2023-02-17T16:52:25;100574.41;;;11.49;94.86
10064;BME280;5071;52.360;13.134;2023-02-17T16:57:27;100557.44;;;11.55;93.45
10064;BME280;5071;52.360;13.134;2023-02-17T17:02:29;100559.13;;;11.59;92.45
10064;BME280;5071;52.360;13.134;2023-02-17T17:07:33;100588.28;;;11.63;91.70
10064;BME280;5071;52.360;13.134;2023-02-17T17:12:35;100567.78;;;11.70;90.27
10064;BME280;5071;52.360;13.134;2023-02-17T17:17:41;100568.59;;;11.74;89.63
10064;BME280;5071;52.360;13.134;2023-02-17T17:22:46;100571.25;;;11.74;88.79
10064;BME280;5071;52.360;13.134;2023-02-17T17:27:48;100584.69;;;11.67;89.10
10064;BME280;5071;52.360;13.134;2023-02-17T17:32:50;100577.53;;;11.70;87.56
10064;BME280;5071;52.360;13.134;2023-02-17T17:37:53;100576.63;;;11.71;86.15
10064;BME280;5071;52.360;13.134;2023-02-17T17:42:56;100573.16;;;11.67;84.98
10064;BME280;5071;52.360;13.134;2023-02-17T17:47:59;100595.25;;;11.71;84.00
10064;BME280;5071;52.360;13.134;2023-02-17T17:53:03;100598.56;;;11.82;83.02
10064;BME280;5071;52.360;13.134;2023-02-17T17:58:05;100596.22;;;11.66;83.68
10064;BME280;5071;52.360;13.134;2023-02-17T18:03:07;100607.56;;;11.75;82.31
10064;BME280;5071;52.360;13.134;2023-02-17T18:08:10;100599.31;;;11.89;80.48
10064;BME280;5071;52.360;13.134;2023-02-17T18:13:12;100618.09;;;11.81;80.97
10064;BME280;5071;52.360;13.134;2023-02-17T18:18:15;100608.69;;;11.63;83.17
10064;BME280;5071;52.360;13.134;2023-02-17T18:23:18;100647.38;;;11.29;87.28
10064;BME280;5071;52.360;13.134;2023-02-17T18:28:20;100656.66;;;11.04;90.10
10064;BME280;5071;52.360;13.134;2023-02-17T18:33:22;100664.94;;;10.81;92.23
10064;BME280;5071;52.360;13.134;2023-02-17T18:38:26;100670.38;;;10.73;92.65
10064;BME280;5071;52.360;13.134;2023-02-17T18:43:30;100672.19;;;10.69;91.97
10064;BME280;5071;52.360;13.134;2023-02-17T18:48:32;100688.00;;;10.77;90.38
10064;BME280;5071;52.360;13.134;2023-02-17T18:53:37;100697.09;;;10.62;89.48
10064;BME280;5071;52.360;13.134;2023-02-17T18:58:39;100710.13;;;10.79;84.49
10064;BME280;5071;52.360;13.134;2023-02-17T19:03:42;100710.78;;;10.94;81.64
10064;BME280;5071;52.360;13.134;2023-02-17T19:08:46;100705.34;;;11.03;80.70
10064;BME280;5071;52.360;13.134;2023-02-17T19:13:49;100719.56;;;11.00;79.11
10064;BME280;5071;52.360;13.134;2023-02-17T19:18:51;100746.06;;;11.03;78.03
10064;BME280;5071;52.360;13.134;2023-02-17T19:23:54;100750.63;;;10.94;71.86
10064;BME280;5071;52.360;13.134;2023-02-17T19:28:56;100761.47;;;10.78;67.72
10064;BME280;5071;52.360;13.134;2023-02-17T19:33:59;100775.84;;;10.60;63.86
10064;BME280;5071;52.360;13.134;2023-02-17T19:39:02;100798.94;;;10.52;61.61
10064;BME280;5071;52.360;13.134;2023-02-17T19:44:04;100801.81;;;10.29;62.59
10064;BME280;5071;52.360;13.134;2023-02-17T19:49:07;100797.47;;;10.19;63.37
10064;BME280;5071;52.360;13.134;2023-02-17T19:54:11;100801.22;;;9.96;63.59
10064;BME280;5071;52.360;13.134;2023-02-17T19:59:13;100819.84;;;9.91;64.04
10064;BME280;5071;52.360;13.134;2023-02-17T20:04:15;100823.47;;;9.80;62.58
10064;BME280;5071;52.360;13.134;2023-02-17T20:09:21;100824.38;;;9.77;60.55
10064;BME280;5071;52.360;13.134;2023-02-17T20:14:23;100863.28;;;9.72;60.93
10064;BME280;5071;52.360;13.134;2023-02-17T20:19:25;100817.47;;;9.53;61.19
10064;BME280;5071;52.360;13.134;2023-02-17T20:24:29;100845.78;;;9.48;61.44
10064;BME280;5071;52.360;13.134;2023-02-17T20:29:32;100853.75;;;9.48;61.30
10064;BME280;5071;52.360;13.134;2023-02-17T20:34:46;100839.78;;;9.12;63.17
10064;BME280;5071;52.360;13.134;2023-02-17T20:40:02;100861.00;;;9.07;64.44
10064;BME280;5071;52.360;13.134;2023-02-17T20:45:05;100881.34;;;8.91;65.33
10064;BME280;5071;52.360;13.134;2023-02-17T20:50:10;100893.72;;;8.92;65.35
10064;BME280;5071;52.360;13.134;2023-02-17T20:55:17;100901.69;;;8.82;65.30
10064;BME280;5071;52.360;13.134;2023-02-17T21:00:24;100909.69;;;8.62;66.88
10064;BME280;5071;52.360;13.134;2023-02-17T21:05:30;100891.19;;;8.42;68.17
10064;BME280;5071;52.360;13.134;2023-02-17T21:10:41;100918.47;;;8.24;68.73
10064;BME280;5071;52.360;13.134;2023-02-17T21:15:43;100934.34;;;8.36;68.28
10064;BME280;5071;52.360;13.134;2023-02-17T21:20:46;100933.44;;;8.22;68.88
10064;BME280;5071;52.360;13.134;2023-02-17T21:25:50;100939.63;;;8.14;69.24
10064;BME280;5071;52.360;13.134;2023-02-17T21:30:52;100952.84;;;8.10;69.13
10064;BME280;5071;52.360;13.134;2023-02-17T21:35:54;100938.75;;;7.94;69.09
10064;BME280;5071;52.360;13.134;2023-02-17T21:41:03;100948.41;;;7.95;69.18
10064;BME280;5071;52.360;13.134;2023-02-17T21:46:06;100933.41;;;7.78;69.44
10064;BME280;5071;52.360;13.134;2023-02-17T21:51:10;100944.88;;;7.77;68.77
10064;BME280;5071;52.360;13.134;2023-02-17T21:56:15;100969.53;;;7.83;69.11
10064;BME280;5071;52.360;13.134;2023-02-17T22:01:18;100970.41;;;7.78;68.88
10064;BME280;5071;52.360;13.134;2023-02-17T22:06:21;100973.91;;;7.76;68.75
10064;BME280;5071;52.360;13.134;2023-02-17T22:11:27;100986.19;;;7.60;69.09
10064;BME280;5071;52.360;13.134;2023-02-17T22:16:31;100993.25;;;7.61;69.34
10064;BME280;5071;52.360;13.134;2023-02-17T22:21:33;101005.56;;;7.53;69.66
10064;BME280;5071;52.360;13.134;2023-02-17T22:26:37;100992.31;;;7.50;69.28
10064;BME280;5071;52.360;13.134;2023-02-17T22:31:39;101012.56;;;7.46;70.03
10064;BME280;5071;52.360;13.134;2023-02-17T22:36:42;101039.00;;;7.51;69.97
10064;BME280;5071;52.360;13.134;2023-02-17T22:41:45;101025.78;;;7.51;69.97
10064;BME280;5071;52.360;13.134;2023-02-17T22:46:48;101045.16;;;7.50;70.35
10064;BME280;5071;52.360;13.134;2023-02-17T22:51:50;101055.75;;;7.53;70.12
10064;BME280;5071;52.360;13.134;2023-02-17T22:56:53;101053.03;;;7.44;70.82
10064;BME280;5071;52.360;13.134;2023-02-17T23:01:57;101049.50;;;7.40;71.33
10064;BME280;5071;52.360;13.134;2023-02-17T23:06:59;101053.84;;;7.33;71.98
10064;BME280;5071;52.360;13.134;2023-02-17T23:12:02;101039.69;;;7.22;72.13
10064;BME280;5071;52.360;13.134;2023-02-17T23:17:06;101056.41;;;7.18;72.70
10064;BME280;5071;52.360;13.134;2023-02-17T23:22:10;101061.66;;;7.13;73.15
10064;BME280;5071;52.360;13.134;2023-02-17T23:27:13;101085.41;;;7.12;73.14
10064;BME280;5071;52.360;13.134;2023-02-17T23:32:16;101071.25;;;7.04;73.97
10064;BME280;5071;52.360;13.134;2023-02-17T23:37:18;101086.19;;;7.01;73.81
10064;BME280;5071;52.360;13.134;2023-02-17T23:42:22;101077.41;;;7.06;73.94
10064;BME280;5071;52.360;13.134;2023-02-17T23:47:24;101069.50;;;7.03;73.67
10064;BME280;5071;52.360;13.134;2023-02-17T23:52:26;101086.13;;;6.94;73.95
10064;BME280;5071;52.360;13.134;2023-02-17T23:57:30;101098.38;;;6.84;74.76
